sensor_id;sensor_type;location;lat;lon;timestamp;temperature;humidity
8261;DHT22;64115;50.170;8.242;2023-08-06T00:01:01;13.50;99.90
8261;DHT22;64115;50.170;8.242;2023-08-06T00:03:28;13.50;99.90
8261;DHT22;64115;50.170;8.242;2023-08-06T00:05:55;13.50;99.90
8261;DHT22;64115;50.170;8.242;2023-08-06T00:08:21;13.50;99.90
8261;DHT22;64115;50.170;8.242;2023-08-06T00:10:50;13.50;99.90
8261;DHT22;64115;50.170;8.242;2023-08-06T00:13:17;13.50;99.90
8261;DHT22;64115;50.170;8.242;2023-08-06T00:15:44;13.50;99.90
8261;DHT22;64115;50.170;8.242;2023-08-06T00:18:12;13.60;99.90
8261;DHT22;64115;50.170;8.242;2023-08-06T00:20:39;13.60;99.90
8261;DHT22;64115;50.170;8.242;2023-08-06T00:23:06;13.60;99.90
8261;DHT22;64115;50.170;8.242;2023-08-06T00:25:33;13.60;99.90
8261;DHT22;64115;50.170;8.242;2023-08-06T00:28:00;13.60;99.90
8261;DHT22;64115;50.170;8.242;2023-08-06T00:30:27;13.60;99.90
8261;DHT22;64115;50.170;8.242;2023-08-06T00:32:55;13.60;99.90
8261;DHT22;64115;50.170;8.242;2023-08-06T00:35:23;13.60;99.90
8261;DHT22;64115;50.170;8.242;2023-08-06T00:37:50;13.60;99.90
8261;DHT22;64115;50.170;8.242;2023-08-06T00:40:20;13.60;99.90
8261;DHT22;64115;50.170;8.242;2023-08-06T00:42:47;13.70;99.90
8261;DHT22;64115;50.170;8.242;2023-08-06T00:45:13;13.70;99.90
8261;DHT22;64115;50.170;8.242;2023-08-06T00:47:41;13.70;99.90
8261;DHT22;64115;50.170;8.242;2023-08-06T00:50:08;13.70;99.90
8261;DHT22;64115;50.170;8.242;2023-08-06T00:52:37;13.70;99.90
8261;DHT22;64115;50.170;8.242;2023-08-06T00:55:04;13.70;99.90
8261;DHT22;64115;50.170;8.242;2023-08-06T00:57:32;13.70;99.90
8261;DHT22;64115;50.170;8.242;2023-08-06T00:59:59;13.70;99.90
8261;DHT22;64115;50.170;8.242;2023-08-06T01:02:26;13.70;99.90
8261;DHT22;64115;50.170;8.242;2023-08-06T01:04:53;13.70;99.90
8261;DHT22;64115;50.170;8.242;2023-08-06T01:07:29;13.70;99.90
8261;DHT22;64115;50.170;8.242;2023-08-06T01:10:15;13.70;99.90
8261;DHT22;64115;50.170;8.242;2023-08-06T01:12:51;13.70;99.90
8261;DHT22;64115;50.170;8.242;2023-08-06T01:15:23;13.60;99.90
8261;DHT22;64115;50.170;8.242;2023-08-06T01:17:51;13.70;99.90
8261;DHT22;64115;50.170;8.242;2023-08-06T01:20:18;13.70;99.90
8261;DHT22;64115;50.170;8.242;2023-08-06T01:22:48;13.70;99.90
8261;DHT22;64115;50.170;8.242;2023-08-06T01:25:16;13.60;99.90
8261;DHT22;64115;50.170;8.242;2023-08-06T01:27:46;13.50;99.90
8261;DHT22;64115;50.170;8.242;2023-08-06T01:30:17;13.50;99.90
8261;DHT22;64115;50.170;8.242;2023-08-06T01:32:50;13.50;99.90
8261;DHT22;64115;50.170;8.242;2023-08-06T01:35:22;13.40;99.90
8261;DHT22;64115;50.170;8.242;2023-08-06T01:37:51;13.50;99.90
8261;DHT22;64115;50.170;8.242;2023-08-06T01:40:18;13.50;99.90
8261;DHT22;64115;50.170;8.242;2023-08-06T01:42:45;13.50;99.90
8261;DHT22;64115;50.170;8.242;2023-08-06T01:45:11;13.50;99.90
8261;DHT22;64115;50.170;8.242;2023-08-06T01:47:38;13.50;99.90
8261;DHT22;64115;50.170;8.242;2023-08-06T01:50:06;13.60;99.90
8261;DHT22;64115;50.170;8.242;2023-08-06T01:52:32;13.60;99.90
8261;DHT22;64115;50.170;8.242;2023-08-06T01:55:00;13.60;99.90
8261;DHT22;64115;50.170;8.242;2023-08-06T01:57:27;13.60;99.90
8261;DHT22;64115;50.170;8.242;2023-08-06T01:59:56;13.60;99.90
8261;DHT22;64115;50.170;8.242;2023-08-06T02:02:23;13.60;99.90
8261;DHT22;64115;50.170;8.242;2023-08-06T02:04:50;13.60;99.90
8261;DHT22;64115;50.170;8.242;2023-08-06T02:07:16;13.60;99.90
8261;DHT22;64115;50.170;8.242;2023-08-06T02:09:43;13.60;99.90
8261;DHT22;64115;50.170;8.242;2023-08-06T02:12:11;13.50;99.90
8261;DHT22;64115;50.170;8.242;2023-08-06T02:14:38;13.40;99.90
8261;DHT22;64115;50.170;8.242;2023-08-06T02:17:05;13.30;99.90
8261;DHT22;64115;50.170;8.242;2023-08-06T02:19:32;13.20;99.90
8261;DHT22;64115;50.170;8.242;2023-08-06T02:21:58;13.20;99.90
8261;DHT22;64115;50.170;8.242;2023-08-06T02:24:25;13.10;99.90
8261;DHT22;64115;50.170;8.242;2023-08-06T02:26:52;13.00;99.90
8261;DHT22;64115;50.170;8.242;2023-08-06T02:29:22;13.00;99.90
8261;DHT22;64115;50.170;8.242;2023-08-06T02:31:49;12.90;99.90
8261;DHT22;64115;50.170;8.242;2023-08-06T02:34:16;12.90;99.90
8261;DHT22;64115;50.170;8.242;2023-08-06T02:36:45;12.90;99.90
8261;DHT22;64115;50.170;8.242;2023-08-06T02:39:12;13.00;99.90
8261;DHT22;64115;50.170;8.242;2023-08-06T02:41:39;13.00;99.90
8261;DHT22;64115;50.170;8.242;2023-08-06T02:44:08;13.00;99.90
8261;DHT22;64115;50.170;8.242;2023-08-06T02:46:36;13.00;99.90
8261;DHT22;64115;50.170;8.242;2023-08-06T02:49:03;13.00;99.90
8261;DHT22;64115;50.170;8.242;2023-08-06T02:51:29;13.00;99.90
8261;DHT22;64115;50.170;8.242;2023-08-06T02:53:56;13.00;99.90
8261;DHT22;64115;50.170;8.242;2023-08-06T02:56:23;13.00;99.90
8261;DHT22;64115;50.170;8.242;2023-08-06T02:58:51;13.10;99.90
8261;DHT22;64115;50.170;8.242;2023-08-06T03:01:17;13.10;99.90
8261;DHT22;64115;50.170;8.242;2023-08-06T03:03:46;13.10;99.90
8261;DHT22;64115;50.170;8.242;2023-08-06T03:06:12;13.10;99.90
8261;DHT22;64115;50.170;8.242;2023-08-06T03:08:40;13.20;99.90
8261;DHT22;64115;50.170;8.242;2023-08-06T03:11:06;13.20;99.90
8261;DHT22;64115;50.170;8.242;2023-08-06T03:13:33;13.20;99.90
8261;DHT22;64115;50.170;8.242;2023-08-06T03:16:00;13.20;99.90
8261;DHT22;64115;50.170;8.242;2023-08-06T03:18:27;13.20;99.90
8261;DHT22;64115;50.170;8.242;2023-08-06T03:20:55;13.30;99.90
8261;DHT22;64115;50.170;8.242;2023-08-06T03:23:22;13.30;99.90
8261;DHT22;64115;50.170;8.242;2023-08-06T03:25:49;13.30;99.90
8261;DHT22;64115;50.170;8.242;2023-08-06T03:28:16;13.30;99.90
8261;DHT22;64115;50.170;8.242;2023-08-06T03:30:43;13.20;99.90
8261;DHT22;64115;50.170;8.242;2023-08-06T03:33:09;13.30;99.90
8261;DHT22;64115;50.170;8.242;2023-08-06T03:35:36;13.30;99.90
8261;DHT22;64115;50.170;8.242;2023-08-06T03:38:04;13.20;99.90
8261;DHT22;64115;50.170;8.242;2023-08-06T03:40:31;13.20;99.90
8261;DHT22;64115;50.170;8.242;2023-08-06T03:42:58;13.10;99.90
8261;DHT22;64115;50.170;8.242;2023-08-06T03:45:24;13.20;99.90
8261;DHT22;64115;50.170;8.242;2023-08-06T03:47:51;13.00;99.90
8261;DHT22;64115;50.170;8.242;2023-08-06T03:50:18;13.00;99.90
8261;DHT22;64115;50.170;8.242;2023-08-06T03:52:45;12.90;99.90
8261;DHT22;64115;50.170;8.242;2023-08-06T03:55:13;12.80;99.90
8261;DHT22;64115;50.170;8.242;2023-08-06T03:57:40;12.70;99.90
8261;DHT22;64115;50.170;8.242;2023-08-06T04:00:07;12.70;99.90
8261;DHT22;64115;50.170;8.242;2023-08-06T04:02:34;12.70;99.90
8261;DHT22;64115;50.170;8.242;2023-08-06T04:05:01;12.70;99.90
8261;DHT22;64115;50.170;8.242;2023-08-06T04:07:28;12.70;99.90
8261;DHT22;64115;50.170;8.242;2023-08-06T04:09:57;12.70;99.90
8261;DHT22;64115;50.170;8.242;2023-08-06T04:12:25;12.70;99.90
8261;DHT22;64115;50.170;8.242;2023-08-06T04:14:53;12.70;99.90
8261;DHT22;64115;50.170;8.242;2023-08-06T04:17:21;12.80;99.90
8261;DHT22;64115;50.170;8.242;2023-08-06T04:19:50;12.80;99.90
8261;DHT22;64115;50.170;8.242;2023-08-06T04:22:17;12.80;99.90
8261;DHT22;64115;50.170;8.242;2023-08-06T04:24:44;12.80;99.90
8261;DHT22;64115;50.170;8.242;2023-08-06T04:27:12;12.90;99.90
8261;DHT22;64115;50.170;8.242;2023-08-06T04:29:40;12.90;99.90
8261;DHT22;64115;50.170;8.242;2023-08-06T04:32:10;12.90;99.90
8261;DHT22;64115;50.170;8.242;2023-08-06T04:34:37;12.90;99.90
8261;DHT22;64115;50.170;8.242;2023-08-06T04:37:04;13.00;99.90
8261;DHT22;64115;50.170;8.242;2023-08-06T04:39:31;13.00;99.90
8261;DHT22;64115;50.170;8.242;2023-08-06T04:41:58;13.00;99.90
8261;DHT22;64115;50.170;8.242;2023-08-06T04:44:25;13.00;99.90
8261;DHT22;64115;50.170;8.242;2023-08-06T04:46:53;13.00;99.90
8261;DHT22;64115;50.170;8.242;2023-08-06T04:49:20;13.00;99.90
8261;DHT22;64115;50.170;8.242;2023-08-06T04:51:47;13.00;99.90
8261;DHT22;64115;50.170;8.242;2023-08-06T04:54:14;13.00;99.90
8261;DHT22;64115;50.170;8.242;2023-08-06T04:56:41;13.00;99.90
8261;DHT22;64115;50.170;8.242;2023-08-06T04:59:08;13.10;99.90
8261;DHT22;64115;50.170;8.242;2023-08-06T05:01:34;13.10;99.90
8261;DHT22;64115;50.170;8.242;2023-08-06T05:04:04;13.10;99.90
8261;DHT22;64115;50.170;8.242;2023-08-06T05:06:31;13.10;99.90
8261;DHT22;64115;50.170;8.242;2023-08-06T05:08:58;13.10;99.90
8261;DHT22;64115;50.170;8.242;2023-08-06T05:11:25;13.10;99.90
8261;DHT22;64115;50.170;8.242;2023-08-06T05:13:51;13.10;99.90
8261;DHT22;64115;50.170;8.242;2023-08-06T05:16:18;13.20;99.90
8261;DHT22;64115;50.170;8.242;2023-08-06T05:18:45;13.20;99.90
8261;DHT22;64115;50.170;8.242;2023-08-06T05:21:13;13.20;99.90
8261;DHT22;64115;50.170;8.242;2023-08-06T05:23:41;13.20;99.90
8261;DHT22;64115;50.170;8.242;2023-08-06T05:26:08;13.20;99.90
8261;DHT22;64115;50.170;8.242;2023-08-06T05:28:35;13.20;99.90
8261;DHT22;64115;50.170;8.242;2023-08-06T05:31:03;13.20;99.90
8261;DHT22;64115;50.170;8.242;2023-08-06T05:33:30;13.20;99.90
8261;DHT22;64115;50.170;8.242;2023-08-06T05:35:57;13.20;99.90
8261;DHT22;64115;50.170;8.242;2023-08-06T05:38:25;13.20;99.90
8261;DHT22;64115;50.170;8.242;2023-08-06T05:40:52;13.20;99.90
8261;DHT22;64115;50.170;8.242;2023-08-06T05:43:18;13.20;99.90
8261;DHT22;64115;50.170;8.242;2023-08-06T05:45:46;13.20;99.90
8261;DHT22;64115;50.170;8.242;2023-08-06T05:48:13;13.20;99.90
8261;DHT22;64115;50.170;8.242;2023-08-06T05:50:39;13.30;99.90
8261;DHT22;64115;50.170;8.242;2023-08-06T05:53:09;13.30;99.90
8261;DHT22;64115;50.170;8.242;2023-08-06T05:55:38;13.30;99.90
8261;DHT22;64115;50.170;8.242;2023-08-06T05:58:05;13.40;99.90
8261;DHT22;64115;50.170;8.242;2023-08-06T06:00:32;13.30;99.90
8261;DHT22;64115;50.170;8.242;2023-08-06T06:03:02;13.30;99.90
8261;DHT22;64115;50.170;8.242;2023-08-06T06:05:31;13.40;99.90
8261;DHT22;64115;50.170;8.242;2023-08-06T06:07:58;13.30;99.90
8261;DHT22;64115;50.170;8.242;2023-08-06T06:10:25;13.30;99.90
8261;DHT22;64115;50.170;8.242;2023-08-06T06:12:53;13.40;99.90
8261;DHT22;64115;50.170;8.242;2023-08-06T06:15:20;13.40;99.90
8261;DHT22;64115;50.170;8.242;2023-08-06T06:17:46;13.50;99.90
8261;DHT22;64115;50.170;8.242;2023-08-06T06:20:13;13.50;99.90
8261;DHT22;64115;50.170;8.242;2023-08-06T06:22:43;13.40;99.90
8261;DHT22;64115;50.170;8.242;2023-08-06T06:25:09;13.40;99.90
8261;DHT22;64115;50.170;8.242;2023-08-06T06:27:38;13.40;99.90
8261;DHT22;64115;50.170;8.242;2023-08-06T06:30:08;13.50;99.90
8261;DHT22;64115;50.170;8.242;2023-08-06T06:32:41;13.50;99.90
8261;DHT22;64115;50.170;8.242;2023-08-06T06:35:08;13.60;99.90
8261;DHT22;64115;50.170;8.242;2023-08-06T06:37:35;13.60;99.90
8261;DHT22;64115;50.170;8.242;2023-08-06T06:40:02;13.70;99.90
8261;DHT22;64115;50.170;8.242;2023-08-06T06:42:30;13.80;99.90
8261;DHT22;64115;50.170;8.242;2023-08-06T06:44:57;13.90;99.90
8261;DHT22;64115;50.170;8.242;2023-08-06T06:47:25;13.90;99.90
8261;DHT22;64115;50.170;8.242;2023-08-06T06:49:52;13.90;99.90
8261;DHT22;64115;50.170;8.242;2023-08-06T06:52:19;14.00;99.90
8261;DHT22;64115;50.170;8.242;2023-08-06T06:54:45;13.90;99.90
8261;DHT22;64115;50.170;8.242;2023-08-06T06:57:12;14.00;99.90
8261;DHT22;64115;50.170;8.242;2023-08-06T06:59:39;14.00;99.90
8261;DHT22;64115;50.170;8.242;2023-08-06T07:02:06;14.00;99.90
8261;DHT22;64115;50.170;8.242;2023-08-06T07:04:34;14.00;99.90
8261;DHT22;64115;50.170;8.242;2023-08-06T07:07:00;14.00;99.90
8261;DHT22;64115;50.170;8.242;2023-08-06T07:09:27;14.00;99.90
8261;DHT22;64115;50.170;8.242;2023-08-06T07:11:54;13.90;99.90
8261;DHT22;64115;50.170;8.242;2023-08-06T07:14:21;14.00;99.90
8261;DHT22;64115;50.170;8.242;2023-08-06T07:16:47;14.00;99.90
8261;DHT22;64115;50.170;8.242;2023-08-06T07:19:14;14.00;99.90
8261;DHT22;64115;50.170;8.242;2023-08-06T07:21:42;14.10;99.90
8261;DHT22;64115;50.170;8.242;2023-08-06T07:24:09;14.20;99.90
8261;DHT22;64115;50.170;8.242;2023-08-06T07:26:37;14.20;99.90
8261;DHT22;64115;50.170;8.242;2023-08-06T07:29:04;14.20;99.90
8261;DHT22;64115;50.170;8.242;2023-08-06T07:31:32;14.30;99.90
8261;DHT22;64115;50.170;8.242;2023-08-06T07:33:59;14.40;99.90
8261;DHT22;64115;50.170;8.242;2023-08-06T07:36:26;14.50;99.90
8261;DHT22;64115;50.170;8.242;2023-08-06T07:38:54;14.50;99.90
8261;DHT22;64115;50.170;8.242;2023-08-06T07:41:22;14.50;99.90
8261;DHT22;64115;50.170;8.242;2023-08-06T07:43:49;14.60;99.90
8261;DHT22;64115;50.170;8.242;2023-08-06T07:46:16;14.70;99.90
8261;DHT22;64115;50.170;8.242;2023-08-06T07:48:43;14.70;99.90
8261;DHT22;64115;50.170;8.242;2023-08-06T07:51:09;14.80;99.90
8261;DHT22;64115;50.170;8.242;2023-08-06T07:53:37;15.00;99.90
8261;DHT22;64115;50.170;8.242;2023-08-06T07:56:05;15.20;99.90
8261;DHT22;64115;50.170;8.242;2023-08-06T07:58:32;15.30;99.90
8261;DHT22;64115;50.170;8.242;2023-08-06T08:00:59;15.40;99.90
8261;DHT22;64115;50.170;8.242;2023-08-06T08:03:26;15.60;99.90
8261;DHT22;64115;50.170;8.242;2023-08-06T08:05:55;15.70;99.90
8261;DHT22;64115;50.170;8.242;2023-08-06T08:08:24;15.80;99.90
8261;DHT22;64115;50.170;8.242;2023-08-06T08:10:50;16.00;99.90
8261;DHT22;64115;50.170;8.242;2023-08-06T08:13:19;16.30;99.90
8261;DHT22;64115;50.170;8.242;2023-08-06T08:15:45;16.70;99.90
8261;DHT22;64115;50.170;8.242;2023-08-06T08:18:12;17.00;99.90
8261;DHT22;64115;50.170;8.242;2023-08-06T08:20:39;17.20;99.90
8261;DHT22;64115;50.170;8.242;2023-08-06T08:23:06;17.50;99.90
8261;DHT22;64115;50.170;8.242;2023-08-06T08:25:34;17.90;99.90
8261;DHT22;64115;50.170;8.242;2023-08-06T08:28:02;18.00;99.90
8261;DHT22;64115;50.170;8.242;2023-08-06T08:30:30;18.10;99.90
8261;DHT22;64115;50.170;8.242;2023-08-06T08:32:57;18.00;99.90
8261;DHT22;64115;50.170;8.242;2023-08-06T08:35:24;17.80;99.90
8261;DHT22;64115;50.170;8.242;2023-08-06T08:37:50;17.60;99.90
8261;DHT22;64115;50.170;8.242;2023-08-06T08:40:18;17.50;99.90
8261;DHT22;64115;50.170;8.242;2023-08-06T08:42:45;17.60;99.90
8261;DHT22;64115;50.170;8.242;2023-08-06T08:45:12;17.80;99.90
8261;DHT22;64115;50.170;8.242;2023-08-06T08:47:42;17.80;99.90
8261;DHT22;64115;50.170;8.242;2023-08-06T08:50:10;17.80;99.90
8261;DHT22;64115;50.170;8.242;2023-08-06T08:52:39;17.90;99.90
8261;DHT22;64115;50.170;8.242;2023-08-06T08:55:08;17.80;99.90
8261;DHT22;64115;50.170;8.242;2023-08-06T08:57:35;17.60;99.90
8261;DHT22;64115;50.170;8.242;2023-08-06T09:00:02;17.60;99.90
8261;DHT22;64115;50.170;8.242;2023-08-06T09:02:32;17.60;99.90
8261;DHT22;64115;50.170;8.242;2023-08-06T09:05:01;17.50;99.90
8261;DHT22;64115;50.170;8.242;2023-08-06T09:07:32;17.40;99.90
8261;DHT22;64115;50.170;8.242;2023-08-06T09:10:02;17.20;99.90
8261;DHT22;64115;50.170;8.242;2023-08-06T09:12:30;17.00;99.90
8261;DHT22;64115;50.170;8.242;2023-08-06T09:14:57;16.80;99.90
8261;DHT22;64115;50.170;8.242;2023-08-06T09:17:24;16.70;99.90
8261;DHT22;64115;50.170;8.242;2023-08-06T09:19:51;16.70;99.90
8261;DHT22;64115;50.170;8.242;2023-08-06T09:22:19;16.70;99.90
8261;DHT22;64115;50.170;8.242;2023-08-06T09:24:46;16.80;99.90
8261;DHT22;64115;50.170;8.242;2023-08-06T09:27:13;17.00;99.90
8261;DHT22;64115;50.170;8.242;2023-08-06T09:29:41;17.20;99.90
8261;DHT22;64115;50.170;8.242;2023-08-06T09:32:09;17.00;99.90
8261;DHT22;64115;50.170;8.242;2023-08-06T09:34:39;16.90;99.90
8261;DHT22;64115;50.170;8.242;2023-08-06T09:37:07;16.60;99.90
8261;DHT22;64115;50.170;8.242;2023-08-06T09:39:36;16.30;99.90
8261;DHT22;64115;50.170;8.242;2023-08-06T09:42:03;16.20;99.90
8261;DHT22;64115;50.170;8.242;2023-08-06T09:44:31;16.40;99.90
8261;DHT22;64115;50.170;8.242;2023-08-06T09:47:00;16.70;99.90
8261;DHT22;64115;50.170;8.242;2023-08-06T09:49:27;16.90;99.90
8261;DHT22;64115;50.170;8.242;2023-08-06T09:51:55;17.30;99.90
8261;DHT22;64115;50.170;8.242;2023-08-06T09:54:24;17.50;99.90
8261;DHT22;64115;50.170;8.242;2023-08-06T09:56:53;17.60;99.90
8261;DHT22;64115;50.170;8.242;2023-08-06T09:59:20;17.70;99.90
8261;DHT22;64115;50.170;8.242;2023-08-06T10:01:48;17.70;99.90
8261;DHT22;64115;50.170;8.242;2023-08-06T10:04:15;17.80;99.90
8261;DHT22;64115;50.170;8.242;2023-08-06T10:06:46;17.90;99.90
8261;DHT22;64115;50.170;8.242;2023-08-06T10:09:14;18.00;99.90
8261;DHT22;64115;50.170;8.242;2023-08-06T10:11:42;18.10;99.90
8261;DHT22;64115;50.170;8.242;2023-08-06T10:14:18;18.10;99.90
8261;DHT22;64115;50.170;8.242;2023-08-06T10:16:47;18.10;99.90
8261;DHT22;64115;50.170;8.242;2023-08-06T10:19:15;18.10;99.90
8261;DHT22;64115;50.170;8.242;2023-08-06T10:22:07;18.00;99.90
8261;DHT22;64115;50.170;8.242;2023-08-06T10:24:46;18.20;99.90
8261;DHT22;64115;50.170;8.242;2023-08-06T10:27:13;18.30;99.90
8261;DHT22;64115;50.170;8.242;2023-08-06T10:29:41;18.70;99.90
8261;DHT22;64115;50.170;8.242;2023-08-06T10:32:08;18.90;99.90
8261;DHT22;64115;50.170;8.242;2023-08-06T10:34:53;18.90;99.90
8261;DHT22;64115;50.170;8.242;2023-08-06T10:37:20;18.80;99.90
8261;DHT22;64115;50.170;8.242;2023-08-06T10:39:49;18.80;99.90
8261;DHT22;64115;50.170;8.242;2023-08-06T10:42:22;19.00;99.90
8261;DHT22;64115;50.170;8.242;2023-08-06T10:45:14;19.20;99.90
8261;DHT22;64115;50.170;8.242;2023-08-06T10:47:41;19.60;99.90
8261;DHT22;64115;50.170;8.242;2023-08-06T10:50:12;20.10;99.90
8261;DHT22;64115;50.170;8.242;2023-08-06T10:52:39;20.50;99.90
8261;DHT22;64115;50.170;8.242;2023-08-06T10:55:06;20.70;99.90
8261;DHT22;64115;50.170;8.242;2023-08-06T10:57:34;20.60;99.90
8261;DHT22;64115;50.170;8.242;2023-08-06T11:00:01;20.40;99.90
8261;DHT22;64115;50.170;8.242;2023-08-06T11:02:33;20.10;99.90
8261;DHT22;64115;50.170;8.242;2023-08-06T11:05:07;20.30;99.90
8261;DHT22;64115;50.170;8.242;2023-08-06T11:07:34;20.60;99.90
8261;DHT22;64115;50.170;8.242;2023-08-06T11:10:05;20.50;99.90
8261;DHT22;64115;50.170;8.242;2023-08-06T11:12:33;19.80;99.90
8261;DHT22;64115;50.170;8.242;2023-08-06T11:15:00;18.90;99.90
8261;DHT22;64115;50.170;8.242;2023-08-06T11:17:31;18.20;99.90
8261;DHT22;64115;50.170;8.242;2023-08-06T11:19:59;17.50;99.90
8261;DHT22;64115;50.170;8.242;2023-08-06T11:22:26;17.20;99.90
8261;DHT22;64115;50.170;8.242;2023-08-06T11:24:53;16.70;99.90
8261;DHT22;64115;50.170;8.242;2023-08-06T11:27:20;16.30;99.90
8261;DHT22;64115;50.170;8.242;2023-08-06T11:29:47;15.90;99.90
8261;DHT22;64115;50.170;8.242;2023-08-06T11:32:14;15.70;99.90
8261;DHT22;64115;50.170;8.242;2023-08-06T11:34:43;15.50;99.90
8261;DHT22;64115;50.170;8.242;2023-08-06T11:37:10;15.40;99.90
8261;DHT22;64115;50.170;8.242;2023-08-06T11:39:37;15.20;99.90
8261;DHT22;64115;50.170;8.242;2023-08-06T11:42:06;15.10;99.90
8261;DHT22;64115;50.170;8.242;2023-08-06T11:44:35;14.90;99.90
8261;DHT22;64115;50.170;8.242;2023-08-06T11:47:03;14.70;99.90
8261;DHT22;64115;50.170;8.242;2023-08-06T11:49:38;14.60;99.90
8261;DHT22;64115;50.170;8.242;2023-08-06T11:52:10;14.50;99.90
8261;DHT22;64115;50.170;8.242;2023-08-06T11:54:37;14.40;99.90
8261;DHT22;64115;50.170;8.242;2023-08-06T11:57:05;14.40;99.90
8261;DHT22;64115;50.170;8.242;2023-08-06T11:59:32;14.30;99.90
8261;DHT22;64115;50.170;8.242;2023-08-06T12:02:03;14.20;99.90
8261;DHT22;64115;50.170;8.242;2023-08-06T12:04:31;14.10;99.90
8261;DHT22;64115;50.170;8.242;2023-08-06T12:07:05;14.00;99.90
8261;DHT22;64115;50.170;8.242;2023-08-06T12:09:34;13.90;99.90
8261;DHT22;64115;50.170;8.242;2023-08-06T12:12:01;13.90;99.90
8261;DHT22;64115;50.170;8.242;2023-08-06T12:14:28;13.90;99.90
8261;DHT22;64115;50.170;8.242;2023-08-06T12:16:55;13.80;99.90
8261;DHT22;64115;50.170;8.242;2023-08-06T12:19:22;13.90;99.90
8261;DHT22;64115;50.170;8.242;2023-08-06T12:21:49;13.90;99.90
8261;DHT22;64115;50.170;8.242;2023-08-06T12:24:15;13.90;99.90
8261;DHT22;64115;50.170;8.242;2023-08-06T12:26:43;13.90;99.90
8261;DHT22;64115;50.170;8.242;2023-08-06T12:29:10;13.80;99.90
8261;DHT22;64115;50.170;8.242;2023-08-06T12:31:37;13.80;99.90
8261;DHT22;64115;50.170;8.242;2023-08-06T12:34:04;13.90;99.90
8261;DHT22;64115;50.170;8.242;2023-08-06T12:36:30;14.10;99.90
8261;DHT22;64115;50.170;8.242;2023-08-06T12:38:57;14.40;99.90
8261;DHT22;64115;50.170;8.242;2023-08-06T12:41:24;14.60;99.90
8261;DHT22;64115;50.170;8.242;2023-08-06T12:43:52;14.70;99.90
8261;DHT22;64115;50.170;8.242;2023-08-06T12:46:19;14.80;99.90
8261;DHT22;64115;50.170;8.242;2023-08-06T12:48:46;15.10;99.90
8261;DHT22;64115;50.170;8.242;2023-08-06T12:51:14;15.10;99.90
8261;DHT22;64115;50.170;8.242;2023-08-06T12:53:40;15.20;99.90
8261;DHT22;64115;50.170;8.242;2023-08-06T12:56:07;15.30;99.90
8261;DHT22;64115;50.170;8.242;2023-08-06T12:58:34;15.50;99.90
8261;DHT22;64115;50.170;8.242;2023-08-06T13:01:02;15.60;99.90
8261;DHT22;64115;50.170;8.242;2023-08-06T13:03:29;15.40;99.90
8261;DHT22;64115;50.170;8.242;2023-08-06T13:05:56;15.20;99.90
8261;DHT22;64115;50.170;8.242;2023-08-06T13:08:23;14.90;99.90
8261;DHT22;64115;50.170;8.242;2023-08-06T13:10:50;14.70;99.90
8261;DHT22;64115;50.170;8.242;2023-08-06T13:13:17;14.60;99.90
8261;DHT22;64115;50.170;8.242;2023-08-06T13:15:44;14.40;99.90
8261;DHT22;64115;50.170;8.242;2023-08-06T13:18:12;14.30;99.90
8261;DHT22;64115;50.170;8.242;2023-08-06T13:20:39;14.40;99.90
8261;DHT22;64115;50.170;8.242;2023-08-06T13:23:06;14.50;99.90
8261;DHT22;64115;50.170;8.242;2023-08-06T13:25:33;14.50;99.90
8261;DHT22;64115;50.170;8.242;2023-08-06T13:28:02;14.60;99.90
8261;DHT22;64115;50.170;8.242;2023-08-06T13:30:29;14.70;99.90
8261;DHT22;64115;50.170;8.242;2023-08-06T13:32:57;14.60;99.90
8261;DHT22;64115;50.170;8.242;2023-08-06T13:35:25;14.50;99.90
8261;DHT22;64115;50.170;8.242;2023-08-06T13:37:55;14.50;99.90
8261;DHT22;64115;50.170;8.242;2023-08-06T13:40:22;14.40;99.90
8261;DHT22;64115;50.170;8.242;2023-08-06T13:42:49;14.40;99.90
8261;DHT22;64115;50.170;8.242;2023-08-06T13:45:16;14.30;99.90
8261;DHT22;64115;50.170;8.242;2023-08-06T13:47:42;14.40;99.90
8261;DHT22;64115;50.170;8.242;2023-08-06T13:50:09;14.50;99.90
8261;DHT22;64115;50.170;8.242;2023-08-06T13:52:37;14.50;99.90
8261;DHT22;64115;50.170;8.242;2023-08-06T13:55:05;14.50;99.90
8261;DHT22;64115;50.170;8.242;2023-08-06T13:57:33;14.50;99.90
8261;DHT22;64115;50.170;8.242;2023-08-06T14:00:00;14.70;99.90
8261;DHT22;64115;50.170;8.242;2023-08-06T14:02:27;15.10;99.90
8261;DHT22;64115;50.170;8.242;2023-08-06T14:04:55;15.40;99.90
8261;DHT22;64115;50.170;8.242;2023-08-06T14:07:22;15.50;99.90
8261;DHT22;64115;50.170;8.242;2023-08-06T14:09:50;15.60;99.90
8261;DHT22;64115;50.170;8.242;2023-08-06T14:12:17;15.80;99.90
8261;DHT22;64115;50.170;8.242;2023-08-06T14:14:44;15.90;99.90
8261;DHT22;64115;50.170;8.242;2023-08-06T14:17:10;16.00;99.90
8261;DHT22;64115;50.170;8.242;2023-08-06T14:19:37;15.90;99.90
8261;DHT22;64115;50.170;8.242;2023-08-06T14:22:04;15.90;99.90
8261;DHT22;64115;50.170;8.242;2023-08-06T14:24:31;15.90;99.90
8261;DHT22;64115;50.170;8.242;2023-08-06T14:26:59;15.70;99.90
8261;DHT22;64115;50.170;8.242;2023-08-06T14:29:27;15.80;99.90
8261;DHT22;64115;50.170;8.242;2023-08-06T14:31:54;16.00;99.90
8261;DHT22;64115;50.170;8.242;2023-08-06T14:34:21;15.90;99.90
8261;DHT22;64115;50.170;8.242;2023-08-06T14:36:48;15.90;99.90
8261;DHT22;64115;50.170;8.242;2023-08-06T14:39:15;15.70;99.90
8261;DHT22;64115;50.170;8.242;2023-08-06T14:41:42;15.50;99.90
8261;DHT22;64115;50.170;8.242;2023-08-06T14:44:10;15.20;99.90
8261;DHT22;64115;50.170;8.242;2023-08-06T14:46:37;15.20;99.90
8261;DHT22;64115;50.170;8.242;2023-08-06T14:49:03;15.10;99.90
8261;DHT22;64115;50.170;8.242;2023-08-06T14:51:30;14.80;99.90
8261;DHT22;64115;50.170;8.242;2023-08-06T14:53:57;14.70;99.90
8261;DHT22;64115;50.170;8.242;2023-08-06T14:56:24;14.60;99.90
8261;DHT22;64115;50.170;8.242;2023-08-06T14:58:51;14.30;99.90
8261;DHT22;64115;50.170;8.242;2023-08-06T15:01:19;14.30;99.90
8261;DHT22;64115;50.170;8.242;2023-08-06T15:03:45;14.20;99.90
8261;DHT22;64115;50.170;8.242;2023-08-06T15:06:12;14.00;99.90
8261;DHT22;64115;50.170;8.242;2023-08-06T15:08:39;14.00;99.90
8261;DHT22;64115;50.170;8.242;2023-08-06T15:11:06;14.00;99.90
8261;DHT22;64115;50.170;8.242;2023-08-06T15:13:33;14.20;99.90
8261;DHT22;64115;50.170;8.242;2023-08-06T15:15:59;14.50;99.90
8261;DHT22;64115;50.170;8.242;2023-08-06T15:18:27;14.60;99.90
8261;DHT22;64115;50.170;8.242;2023-08-06T15:20:57;14.80;99.90
8261;DHT22;64115;50.170;8.242;2023-08-06T15:23:24;14.80;99.90
8261;DHT22;64115;50.170;8.242;2023-08-06T15:25:51;14.90;99.90
8261;DHT22;64115;50.170;8.242;2023-08-06T15:28:18;14.70;99.90
8261;DHT22;64115;50.170;8.242;2023-08-06T15:30:48;14.60;99.90
8261;DHT22;64115;50.170;8.242;2023-08-06T15:33:16;14.50;99.90
8261;DHT22;64115;50.170;8.242;2023-08-06T15:35:50;14.50;99.90
8261;DHT22;64115;50.170;8.242;2023-08-06T15:38:16;14.40;99.90
8261;DHT22;64115;50.170;8.242;2023-08-06T15:40:43;14.30;99.90
8261;DHT22;64115;50.170;8.242;2023-08-06T15:43:14;14.20;99.90
8261;DHT22;64115;50.170;8.242;2023-08-06T15:45:40;14.10;99.90
8261;DHT22;64115;50.170;8.242;2023-08-06T15:48:10;14.10;99.90